sensor_id;sensor_type;location;lat;lon;timestamp;temperature;humidity
43987;DHT22;29650;47.378;8.300;2023-02-28T00:00:27;0.20;84.00
43987;DHT22;29650;47.378;8.300;2023-02-28T00:03:09;0.10;84.20
43987;DHT22;29650;47.378;8.300;2023-02-28T00:05:45;0.20;84.30
43987;DHT22;29650;47.378;8.300;2023-02-28T00:08:13;0.60;85.10
43987;DHT22;29650;47.378;8.300;2023-02-28T00:10:40;0.20;84.90
43987;DHT22;29650;47.378;8.300;2023-02-28T00:13:07;0.20;84.80
43987;DHT22;29650;47.378;8.300;2023-02-28T00:15:35;0.00;84.70
43987;DHT22;29650;47.378;8.300;2023-02-28T00:18:02;-0.20;85.60
43987;DHT22;29650;47.378;8.300;2023-02-28T00:20:33;0.10;85.60
43987;DHT22;29650;47.378;8.300;2023-02-28T00:23:00;0.20;85.40
43987;DHT22;29650;47.378;8.300;2023-02-28T00:25:42;0.10;85.40
43987;DHT22;29650;47.378;8.300;2023-02-28T00:28:09;0.00;85.70
43987;DHT22;29650;47.378;8.300;2023-02-28T00:30:36;0.30;85.70
43987;DHT22;29650;47.378;8.300;2023-02-28T00:33:03;0.20;86.70
43987;DHT22;29650;47.378;8.300;2023-02-28T00:35:32;0.20;86.60
43987;DHT22;29650;47.378;8.300;2023-02-28T00:37:59;0.30;86.50
43987;DHT22;29650;47.378;8.300;2023-02-28T00:40:27;0.20;85.90
43987;DHT22;29650;47.378;8.300;2023-02-28T00:42:54;0.00;86.50
43987;DHT22;29650;47.378;8.300;2023-02-28T00:45:27;0.10;86.50
43987;DHT22;29650;47.378;8.300;2023-02-28T00:47:54;0.10;86.10
43987;DHT22;29650;47.378;8.300;2023-02-28T00:50:25;0.30;86.80
43987;DHT22;29650;47.378;8.300;2023-02-28T00:52:55;0.30;86.20
43987;DHT22;29650;47.378;8.300;2023-02-28T00:55:55;0.40;86.60
43987;DHT22;29650;47.378;8.300;2023-02-28T00:58:22;0.30;87.60
43987;DHT22;29650;47.378;8.300;2023-02-28T01:00:51;0.20;86.60
43987;DHT22;29650;47.378;8.300;2023-02-28T01:03:19;0.20;86.30
43987;DHT22;29650;47.378;8.300;2023-02-28T01:05:46;0.20;86.00
43987;DHT22;29650;47.378;8.300;2023-02-28T01:08:15;0.40;86.00
43987;DHT22;29650;47.378;8.300;2023-02-28T01:10:44;0.20;86.60
43987;DHT22;29650;47.378;8.300;2023-02-28T01:13:12;0.30;86.60
43987;DHT22;29650;47.378;8.300;2023-02-28T01:15:41;0.30;87.10
43987;DHT22;29650;47.378;8.300;2023-02-28T01:18:09;0.30;85.80
43987;DHT22;29650;47.378;8.300;2023-02-28T01:20:50;0.40;85.20
43987;DHT22;29650;47.378;8.300;2023-02-28T01:23:20;0.20;85.60
43987;DHT22;29650;47.378;8.300;2023-02-28T01:25:47;0.40;86.00
43987;DHT22;29650;47.378;8.300;2023-02-28T01:28:29;0.30;86.40
43987;DHT22;29650;47.378;8.300;2023-02-28T01:30:56;0.30;86.20
43987;DHT22;29650;47.378;8.300;2023-02-28T01:33:23;0.40;85.80
43987;DHT22;29650;47.378;8.300;2023-02-28T01:35:50;0.40;86.00
43987;DHT22;29650;47.378;8.300;2023-02-28T01:38:25;0.30;85.60
43987;DHT22;29650;47.378;8.300;2023-02-28T01:40:52;0.30;85.40
43987;DHT22;29650;47.378;8.300;2023-02-28T01:43:24;0.40;84.70
43987;DHT22;29650;47.378;8.300;2023-02-28T01:46:12;0.30;85.90
43987;DHT22;29650;47.378;8.300;2023-02-28T01:48:42;0.20;86.40
43987;DHT22;29650;47.378;8.300;2023-02-28T01:51:14;0.40;86.30
43987;DHT22;29650;47.378;8.300;2023-02-28T01:53:52;0.40;85.50
43987;DHT22;29650;47.378;8.300;2023-02-28T01:56:41;0.40;85.40
43987;DHT22;29650;47.378;8.300;2023-02-28T01:59:13;0.40;85.20
43987;DHT22;29650;47.378;8.300;2023-02-28T02:01:41;0.40;85.00
43987;DHT22;29650;47.378;8.300;2023-02-28T02:04:34;0.90;85.80
43987;DHT22;29650;47.378;8.300;2023-02-28T02:07:04;0.90;85.30
43987;DHT22;29650;47.378;8.300;2023-02-28T02:09:33;0.30;85.30
43987;DHT22;29650;47.378;8.300;2023-02-28T02:12:12;-0.60;85.20
43987;DHT22;29650;47.378;8.300;2023-02-28T02:14:50;0.30;86.80
43987;DHT22;29650;47.378;8.300;2023-02-28T02:17:28;-1.50;85.50
43987;DHT22;29650;47.378;8.300;2023-02-28T02:20:31;0.30;86.10
43987;DHT22;29650;47.378;8.300;2023-02-28T02:29:35;0.30;86.10
43987;DHT22;29650;47.378;8.300;2023-02-28T02:32:36;0.40;85.80
43987;DHT22;29650;47.378;8.300;2023-02-28T02:35:18;0.30;86.50
43987;DHT22;29650;47.378;8.300;2023-02-28T02:37:51;0.40;86.40
43987;DHT22;29650;47.378;8.300;2023-02-28T02:40:21;0.50;85.60
43987;DHT22;29650;47.378;8.300;2023-02-28T02:42:52;0.40;85.50
43987;DHT22;29650;47.378;8.300;2023-02-28T02:45:25;0.40;85.70
43987;DHT22;29650;47.378;8.300;2023-02-28T02:47:56;0.50;84.80
43987;DHT22;29650;47.378;8.300;2023-02-28T02:50:29;0.40;85.00
43987;DHT22;29650;47.378;8.300;2023-02-28T02:53:00;0.30;85.70
43987;DHT22;29650;47.378;8.300;2023-02-28T02:55:30;0.20;87.20
43987;DHT22;29650;47.378;8.300;2023-02-28T02:58:00;0.00;86.30
43987;DHT22;29650;47.378;8.300;2023-02-28T03:00:31;0.30;86.80
43987;DHT22;29650;47.378;8.300;2023-02-28T03:02:59;0.20;86.40
43987;DHT22;29650;47.378;8.300;2023-02-28T03:05:32;0.30;86.80
43987;DHT22;29650;47.378;8.300;2023-02-28T03:08:03;0.30;86.10
43987;DHT22;29650;47.378;8.300;2023-02-28T03:10:35;0.40;85.80
43987;DHT22;29650;47.378;8.300;2023-02-28T03:13:25;0.40;86.00
43987;DHT22;29650;47.378;8.300;2023-02-28T03:16:07;0.20;86.30
43987;DHT22;29650;47.378;8.300;2023-02-28T03:18:44;0.30;86.40
43987;DHT22;29650;47.378;8.300;2023-02-28T03:21:25;0.30;87.10
43987;DHT22;29650;47.378;8.300;2023-02-28T03:23:59;0.20;87.50
43987;DHT22;29650;47.378;8.300;2023-02-28T03:26:29;0.20;87.60
43987;DHT22;29650;47.378;8.300;2023-02-28T03:29:02;0.40;87.40
43987;DHT22;29650;47.378;8.300;2023-02-28T03:31:33;0.20;87.40
43987;DHT22;29650;47.378;8.300;2023-02-28T03:34:06;0.20;87.60
43987;DHT22;29650;47.378;8.300;2023-02-28T03:36:38;0.20;87.60
43987;DHT22;29650;47.378;8.300;2023-02-28T03:39:13;0.20;87.00
43987;DHT22;29650;47.378;8.300;2023-02-28T03:41:44;0.30;85.90
43987;DHT22;29650;47.378;8.300;2023-02-28T03:44:18;0.20;86.80
43987;DHT22;29650;47.378;8.300;2023-02-28T03:46:52;0.20;86.50
43987;DHT22;29650;47.378;8.300;2023-02-28T03:49:25;0.20;87.00
43987;DHT22;29650;47.378;8.300;2023-02-28T03:51:56;0.10;88.50
43987;DHT22;29650;47.378;8.300;2023-02-28T03:54:29;0.20;89.00
43987;DHT22;29650;47.378;8.300;2023-02-28T03:57:02;0.20;87.70
43987;DHT22;29650;47.378;8.300;2023-02-28T03:59:34;0.20;87.00
43987;DHT22;29650;47.378;8.300;2023-02-28T04:02:02;0.20;87.80
43987;DHT22;29650;47.378;8.300;2023-02-28T04:04:29;0.30;87.50
43987;DHT22;29650;47.378;8.300;2023-02-28T04:07:03;0.40;87.70
43987;DHT22;29650;47.378;8.300;2023-02-28T04:09:31;0.40;87.50
43987;DHT22;29650;47.378;8.300;2023-02-28T04:11:58;0.20;87.80
43987;DHT22;29650;47.378;8.300;2023-02-28T04:14:25;0.40;86.70
43987;DHT22;29650;47.378;8.300;2023-02-28T04:16:52;0.30;86.80
43987;DHT22;29650;47.378;8.300;2023-02-28T04:19:19;0.40;86.90
43987;DHT22;29650;47.378;8.300;2023-02-28T04:21:48;0.40;87.10
43987;DHT22;29650;47.378;8.300;2023-02-28T04:24:18;0.30;86.10
43987;DHT22;29650;47.378;8.300;2023-02-28T04:26:46;0.20;86.70
43987;DHT22;29650;47.378;8.300;2023-02-28T04:29:18;0.30;86.80
43987;DHT22;29650;47.378;8.300;2023-02-28T04:31:45;0.20;87.20
43987;DHT22;29650;47.378;8.300;2023-02-28T04:34:12;0.20;87.70
43987;DHT22;29650;47.378;8.300;2023-02-28T04:36:39;0.30;86.90
43987;DHT22;29650;47.378;8.300;2023-02-28T04:39:06;0.40;86.00
43987;DHT22;29650;47.378;8.300;2023-02-28T04:41:34;0.30;85.70
43987;DHT22;29650;47.378;8.300;2023-02-28T04:44:01;0.20;86.70
43987;DHT22;29650;47.378;8.300;2023-02-28T04:46:28;0.20;87.30
43987;DHT22;29650;47.378;8.300;2023-02-28T04:48:56;0.70;87.00
43987;DHT22;29650;47.378;8.300;2023-02-28T04:51:23;0.10;87.70
43987;DHT22;29650;47.378;8.300;2023-02-28T04:53:50;0.30;86.70
43987;DHT22;29650;47.378;8.300;2023-02-28T04:56:18;0.30;86.70
43987;DHT22;29650;47.378;8.300;2023-02-28T04:58:46;0.50;87.00
43987;DHT22;29650;47.378;8.300;2023-02-28T05:01:20;0.40;86.00
43987;DHT22;29650;47.378;8.300;2023-02-28T05:03:47;0.20;86.90
43987;DHT22;29650;47.378;8.300;2023-02-28T05:06:15;0.10;86.70
43987;DHT22;29650;47.378;8.300;2023-02-28T05:08:42;0.10;88.00
43987;DHT22;29650;47.378;8.300;2023-02-28T05:11:15;0.10;88.20
43987;DHT22;29650;47.378;8.300;2023-02-28T05:13:42;0.30;87.00
43987;DHT22;29650;47.378;8.300;2023-02-28T05:16:10;-1.10;87.10
43987;DHT22;29650;47.378;8.300;2023-02-28T05:18:37;0.10;87.40
43987;DHT22;29650;47.378;8.300;2023-02-28T05:21:04;0.30;86.60
43987;DHT22;29650;47.378;8.300;2023-02-28T05:23:32;0.30;86.40
43987;DHT22;29650;47.378;8.300;2023-02-28T05:25:59;0.30;86.90
43987;DHT22;29650;47.378;8.300;2023-02-28T05:28:25;0.30;87.10
43987;DHT22;29650;47.378;8.300;2023-02-28T05:30:52;0.30;86.70
43987;DHT22;29650;47.378;8.300;2023-02-28T05:33:21;0.10;87.20
43987;DHT22;29650;47.378;8.300;2023-02-28T05:35:47;0.10;87.20
43987;DHT22;29650;47.378;8.300;2023-02-28T05:38:14;0.20;87.10
43987;DHT22;29650;47.378;8.300;2023-02-28T05:40:42;0.10;86.10
43987;DHT22;29650;47.378;8.300;2023-02-28T05:43:10;0.00;86.60
43987;DHT22;29650;47.378;8.300;2023-02-28T05:45:37;0.10;86.00
43987;DHT22;29650;47.378;8.300;2023-02-28T05:48:05;0.00;87.50
43987;DHT22;29650;47.378;8.300;2023-02-28T05:50:33;0.10;87.40
43987;DHT22;29650;47.378;8.300;2023-02-28T05:53:00;0.20;87.20
43987;DHT22;29650;47.378;8.300;2023-02-28T05:55:27;0.10;88.00
43987;DHT22;29650;47.378;8.300;2023-02-28T05:57:54;0.00;87.10
43987;DHT22;29650;47.378;8.300;2023-02-28T06:00:22;0.00;87.30
43987;DHT22;29650;47.378;8.300;2023-02-28T06:02:48;0.00;87.60
43987;DHT22;29650;47.378;8.300;2023-02-28T06:05:17;0.00;87.50
43987;DHT22;29650;47.378;8.300;2023-02-28T06:07:46;0.10;87.10
43987;DHT22;29650;47.378;8.300;2023-02-28T06:10:13;-0.10;86.90
43987;DHT22;29650;47.378;8.300;2023-02-28T06:12:41;0.00;86.80
43987;DHT22;29650;47.378;8.300;2023-02-28T06:15:12;0.10;87.20
43987;DHT22;29650;47.378;8.300;2023-02-28T06:17:39;0.00;86.70
43987;DHT22;29650;47.378;8.300;2023-02-28T06:20:07;0.00;86.50
43987;DHT22;29650;47.378;8.300;2023-02-28T06:22:35;-0.20;86.80
43987;DHT22;29650;47.378;8.300;2023-02-28T06:25:04;-0.10;87.30
43987;DHT22;29650;47.378;8.300;2023-02-28T06:27:31;0.00;86.80
43987;DHT22;29650;47.378;8.300;2023-02-28T06:29:58;-0.10;87.10
43987;DHT22;29650;47.378;8.300;2023-02-28T06:32:25;0.00;87.10
43987;DHT22;29650;47.378;8.300;2023-02-28T06:34:52;0.00;86.50
43987;DHT22;29650;47.378;8.300;2023-02-28T06:37:19;0.00;86.70
43987;DHT22;29650;47.378;8.300;2023-02-28T06:39:45;-0.10;86.80
43987;DHT22;29650;47.378;8.300;2023-02-28T06:42:14;-0.10;87.50
43987;DHT22;29650;47.378;8.300;2023-02-28T06:44:41;-0.10;87.60
43987;DHT22;29650;47.378;8.300;2023-02-28T06:47:09;-0.10;87.50
43987;DHT22;29650;47.378;8.300;2023-02-28T06:49:36;0.00;87.70
43987;DHT22;29650;47.378;8.300;2023-02-28T06:52:04;0.20;87.80
43987;DHT22;29650;47.378;8.300;2023-02-28T06:54:31;0.10;87.00
43987;DHT22;29650;47.378;8.300;2023-02-28T06:56:58;0.30;86.50
43987;DHT22;29650;47.378;8.300;2023-02-28T06:59:26;0.40;86.60
43987;DHT22;29650;47.378;8.300;2023-02-28T07:01:53;0.50;86.10
43987;DHT22;29650;47.378;8.300;2023-02-28T07:04:20;0.30;85.10
43987;DHT22;29650;47.378;8.300;2023-02-28T07:06:47;0.30;85.30
43987;DHT22;29650;47.378;8.300;2023-02-28T07:09:14;0.20;85.10
43987;DHT22;29650;47.378;8.300;2023-02-28T07:11:41;0.10;85.50
43987;DHT22;29650;47.378;8.300;2023-02-28T07:14:09;0.30;85.80
43987;DHT22;29650;47.378;8.300;2023-02-28T07:16:37;0.30;85.70
43987;DHT22;29650;47.378;8.300;2023-02-28T07:19:04;0.40;85.40
43987;DHT22;29650;47.378;8.300;2023-02-28T07:21:31;0.40;85.30
43987;DHT22;29650;47.378;8.300;2023-02-28T07:23:58;0.90;85.40
43987;DHT22;29650;47.378;8.300;2023-02-28T07:26:25;0.40;85.00
43987;DHT22;29650;47.378;8.300;2023-02-28T07:28:54;0.40;85.00
43987;DHT22;29650;47.378;8.300;2023-02-28T07:31:21;0.40;85.50
43987;DHT22;29650;47.378;8.300;2023-02-28T07:33:50;0.30;86.70
43987;DHT22;29650;47.378;8.300;2023-02-28T07:36:17;0.40;85.60
43987;DHT22;29650;47.378;8.300;2023-02-28T07:38:46;0.40;86.20
43987;DHT22;29650;47.378;8.300;2023-02-28T07:41:13;0.40;85.00
43987;DHT22;29650;47.378;8.300;2023-02-28T07:43:40;0.60;84.70
43987;DHT22;29650;47.378;8.300;2023-02-28T07:46:10;0.60;85.10
43987;DHT22;29650;47.378;8.300;2023-02-28T07:48:38;0.60;85.00
43987;DHT22;29650;47.378;8.300;2023-02-28T07:51:06;0.60;84.40
43987;DHT22;29650;47.378;8.300;2023-02-28T07:53:33;0.60;86.00
43987;DHT22;29650;47.378;8.300;2023-02-28T07:56:01;0.60;84.10
43987;DHT22;29650;47.378;8.300;2023-02-28T07:58:29;0.50;84.50
43987;DHT22;29650;47.378;8.300;2023-02-28T08:00:56;0.40;85.00
43987;DHT22;29650;47.378;8.300;2023-02-28T08:03:24;0.60;85.30
43987;DHT22;29650;47.378;8.300;2023-02-28T08:05:51;0.50;84.20
43987;DHT22;29650;47.378;8.300;2023-02-28T08:08:20;0.40;84.50
43987;DHT22;29650;47.378;8.300;2023-02-28T08:10:47;0.40;84.30
43987;DHT22;29650;47.378;8.300;2023-02-28T08:13:14;0.40;83.80
43987;DHT22;29650;47.378;8.300;2023-02-28T08:15:41;0.40;84.30
43987;DHT22;29650;47.378;8.300;2023-02-28T08:18:08;0.40;83.90
43987;DHT22;29650;47.378;8.300;2023-02-28T08:20:35;0.40;84.50
43987;DHT22;29650;47.378;8.300;2023-02-28T08:23:02;0.60;84.00
43987;DHT22;29650;47.378;8.300;2023-02-28T08:25:31;0.50;84.10
43987;DHT22;29650;47.378;8.300;2023-02-28T08:27:57;0.50;83.70
43987;DHT22;29650;47.378;8.300;2023-02-28T08:30:24;0.40;83.90
43987;DHT22;29650;47.378;8.300;2023-02-28T08:32:51;0.50;83.50
43987;DHT22;29650;47.378;8.300;2023-02-28T08:35:18;0.60;83.60
43987;DHT22;29650;47.378;8.300;2023-02-28T08:37:47;0.70;83.70
43987;DHT22;29650;47.378;8.300;2023-02-28T08:40:14;0.70;83.80
43987;DHT22;29650;47.378;8.300;2023-02-28T08:42:45;0.70;82.40
43987;DHT22;29650;47.378;8.300;2023-02-28T08:45:12;0.80;83.70
43987;DHT22;29650;47.378;8.300;2023-02-28T08:47:40;1.00;82.30
43987;DHT22;29650;47.378;8.300;2023-02-28T08:50:08;0.90;82.90
43987;DHT22;29650;47.378;8.300;2023-02-28T08:52:35;0.90;82.00
43987;DHT22;29650;47.378;8.300;2023-02-28T08:55:04;1.00;82.60
43987;DHT22;29650;47.378;8.300;2023-02-28T08:57:31;0.90;81.40
43987;DHT22;29650;47.378;8.300;2023-02-28T09:00:00;1.00;83.20
43987;DHT22;29650;47.378;8.300;2023-02-28T09:02:30;0.90;82.90
43987;DHT22;29650;47.378;8.300;2023-02-28T09:04:57;1.00;81.50
43987;DHT22;29650;47.378;8.300;2023-02-28T09:07:24;1.00;81.10
43987;DHT22;29650;47.378;8.300;2023-02-28T09:09:51;1.00;81.30
43987;DHT22;29650;47.378;8.300;2023-02-28T09:12:21;1.10;81.40
43987;DHT22;29650;47.378;8.300;2023-02-28T09:14:48;1.20;81.90
43987;DHT22;29650;47.378;8.300;2023-02-28T09:17:17;1.30;80.00
43987;DHT22;29650;47.378;8.300;2023-02-28T09:19:44;1.40;79.70
43987;DHT22;29650;47.378;8.300;2023-02-28T09:22:11;1.30;79.80
43987;DHT22;29650;47.378;8.300;2023-02-28T09:24:38;1.40;79.30
43987;DHT22;29650;47.378;8.300;2023-02-28T09:27:05;1.30;79.90
43987;DHT22;29650;47.378;8.300;2023-02-28T09:29:33;1.10;80.10
43987;DHT22;29650;47.378;8.300;2023-02-28T09:32:00;1.40;79.50
43987;DHT22;29650;47.378;8.300;2023-02-28T09:34:29;1.40;79.20
43987;DHT22;29650;47.378;8.300;2023-02-28T09:36:56;1.30;79.00
43987;DHT22;29650;47.378;8.300;2023-02-28T09:39:24;1.40;79.60
43987;DHT22;29650;47.378;8.300;2023-02-28T09:41:54;1.40;79.40
43987;DHT22;29650;47.378;8.300;2023-02-28T09:44:26;1.40;79.10
43987;DHT22;29650;47.378;8.300;2023-02-28T09:46:57;1.40;79.20
43987;DHT22;29650;47.378;8.300;2023-02-28T09:49:34;1.30;78.80
43987;DHT22;29650;47.378;8.300;2023-02-28T09:52:06;1.30;79.70
43987;DHT22;29650;47.378;8.300;2023-02-28T09:54:36;1.30;79.40
43987;DHT22;29650;47.378;8.300;2023-02-28T09:57:07;1.40;79.20
43987;DHT22;29650;47.378;8.300;2023-02-28T10:00:02;1.40;78.80
43987;DHT22;29650;47.378;8.300;2023-02-28T10:05:39;1.20;79.40
43987;DHT22;29650;47.378;8.300;2023-02-28T10:08:13;1.40;79.40
43987;DHT22;29650;47.378;8.300;2023-02-28T10:10:43;1.40;80.20
43987;DHT22;29650;47.378;8.300;2023-02-28T10:13:20;1.60;79.10
43987;DHT22;29650;47.378;8.300;2023-02-28T10:15:52;1.60;79.60
43987;DHT22;29650;47.378;8.300;2023-02-28T10:18:24;1.60;78.00
43987;DHT22;29650;47.378;8.300;2023-02-28T10:20:53;1.50;79.20
43987;DHT22;29650;47.378;8.300;2023-02-28T10:23:26;1.70;79.60
43987;DHT22;29650;47.378;8.300;2023-02-28T10:25:58;1.60;78.40
43987;DHT22;29650;47.378;8.300;2023-02-28T10:28:28;1.60;77.50
43987;DHT22;29650;47.378;8.300;2023-02-28T10:30:56;1.60;77.90
43987;DHT22;29650;47.378;8.300;2023-02-28T10:33:28;1.70;77.60
43987;DHT22;29650;47.378;8.300;2023-02-28T10:35:57;1.70;77.60
43987;DHT22;29650;47.378;8.300;2023-02-28T10:38:26;1.80;78.10
43987;DHT22;29650;47.378;8.300;2023-02-28T10:41:04;1.80;76.50
43987;DHT22;29650;47.378;8.300;2023-02-28T10:43:31;1.90;77.60
43987;DHT22;29650;47.378;8.300;2023-02-28T10:46:01;1.80;76.30
43987;DHT22;29650;47.378;8.300;2023-02-28T10:48:36;1.90;76.20
43987;DHT22;29650;47.378;8.300;2023-02-28T10:51:07;1.80;75.50
43987;DHT22;29650;47.378;8.300;2023-02-28T10:53:47;2.00;75.90
43987;DHT22;29650;47.378;8.300;2023-02-28T10:56:18;2.10;75.50
43987;DHT22;29650;47.378;8.300;2023-02-28T10:58:55;1.90;75.30
43987;DHT22;29650;47.378;8.300;2023-02-28T11:01:24;2.10;75.10
43987;DHT22;29650;47.378;8.300;2023-02-28T11:03:52;2.00;75.70
43987;DHT22;29650;47.378;8.300;2023-02-28T11:06:23;1.90;76.90
43987;DHT22;29650;47.378;8.300;2023-02-28T11:08:53;1.70;76.10
43987;DHT22;29650;47.378;8.300;2023-02-28T11:11:21;1.90;75.80
43987;DHT22;29650;47.378;8.300;2023-02-28T11:13:52;2.10;75.80
43987;DHT22;29650;47.378;8.300;2023-02-28T11:16:19;1.80;75.90
43987;DHT22;29650;47.378;8.300;2023-02-28T11:18:49;1.70;78.10
43987;DHT22;29650;47.378;8.300;2023-02-28T11:21:21;1.70;76.80
43987;DHT22;29650;47.378;8.300;2023-02-28T11:23:51;1.70;78.60
43987;DHT22;29650;47.378;8.300;2023-02-28T11:26:40;1.70;77.10
43987;DHT22;29650;47.378;8.300;2023-02-28T11:29:20;1.70;77.30
43987;DHT22;29650;47.378;8.300;2023-02-28T11:32:05;1.60;77.40
43987;DHT22;29650;47.378;8.300;2023-02-28T11:34:37;1.60;77.90
43987;DHT22;29650;47.378;8.300;2023-02-28T11:37:12;1.70;78.80
43987;DHT22;29650;47.378;8.300;2023-02-28T11:39:40;1.80;77.30
43987;DHT22;29650;47.378;8.300;2023-02-28T11:42:16;1.80;76.40
43987;DHT22;29650;47.378;8.300;2023-02-28T11:44:59;1.80;76.40
43987;DHT22;29650;47.378;8.300;2023-02-28T11:47:34;1.90;76.20
43987;DHT22;29650;47.378;8.300;2023-02-28T11:50:27;2.00;77.00
43987;DHT22;29650;47.378;8.300;2023-02-28T11:53:10;1.90;77.90
43987;DHT22;29650;47.378;8.300;2023-02-28T11:55:41;1.80;76.10
43987;DHT22;29650;47.378;8.300;2023-02-28T11:58:26;2.00;77.90
43987;DHT22;29650;47.378;8.300;2023-02-28T12:01:05;1.90;76.30
43987;DHT22;29650;47.378;8.300;2023-02-28T12:03:42;1.90;76.10
43987;DHT22;29650;47.378;8.300;2023-02-28T12:06:18;2.00;76.40
43987;DHT22;29650;47.378;8.300;2023-02-28T12:08:58;1.90;76.40
43987;DHT22;29650;47.378;8.300;2023-02-28T12:11:36;2.20;76.50
43987;DHT22;29650;47.378;8.300;2023-02-28T12:14:27;2.10;77.00
43987;DHT22;29650;47.378;8.300;2023-02-28T12:17:02;2.20;78.40
43987;DHT22;29650;47.378;8.300;2023-02-28T12:19:39;2.00;78.60
43987;DHT22;29650;47.378;8.300;2023-02-28T12:22:26;2.20;78.80
43987;DHT22;29650;47.378;8.300;2023-02-28T12:25:16;2.00;75.80
43987;DHT22;29650;47.378;8.300;2023-02-28T12:27:47;2.10;77.70
43987;DHT22;29650;47.378;8.300;2023-02-28T12:30:19;2.10;78.70
43987;DHT22;29650;47.378;8.300;2023-02-28T12:32:49;2.10;79.00
43987;DHT22;29650;47.378;8.300;2023-02-28T12:35:23;1.90;77.90
43987;DHT22;29650;47.378;8.300;2023-02-28T12:37:55;1.80;78.90
43987;DHT22;29650;47.378;8.300;2023-02-28T12:40:27;1.70;78.20
43987;DHT22;29650;47.378;8.300;2023-02-28T12:42:58;2.00;77.40
43987;DHT22;29650;47.378;8.300;2023-02-28T12:45:35;2.00;77.90
43987;DHT22;29650;47.378;8.300;2023-02-28T12:48:08;1.90;76.20
43987;DHT22;29650;47.378;8.300;2023-02-28T12:50:40;1.90;77.50
43987;DHT22;29650;47.378;8.300;2023-02-28T12:53:09;1.70;77.60
43987;DHT22;29650;47.378;8.300;2023-02-28T12:55:42;1.90;78.80
43987;DHT22;29650;47.378;8.300;2023-02-28T12:58:17;1.60;77.80
43987;DHT22;29650;47.378;8.300;2023-02-28T13:01:00;1.70;77.80
43987;DHT22;29650;47.378;8.300;2023-02-28T13:03:52;1.80;78.90
43987;DHT22;29650;47.378;8.300;2023-02-28T13:06:45;1.60;78.60
43987;DHT22;29650;47.378;8.300;2023-02-28T13:09:18;1.80;78.00
43987;DHT22;29650;47.378;8.300;2023-02-28T13:11:49;1.70;78.30
43987;DHT22;29650;47.378;8.300;2023-02-28T13:14:25;1.70;77.50
43987;DHT22;29650;47.378;8.300;2023-02-28T13:17:10;1.90;77.40
43987;DHT22;29650;47.378;8.300;2023-02-28T13:19:39;1.90;76.80
43987;DHT22;29650;47.378;8.300;2023-02-28T13:22:16;2.10;76.00
43987;DHT22;29650;47.378;8.300;2023-02-28T13:24:49;1.70;78.20
43987;DHT22;29650;47.378;8.300;2023-02-28T13:27:37;1.80;77.60
43987;DHT22;29650;47.378;8.300;2023-02-28T13:33:20;1.60;78.90
43987;DHT22;29650;47.378;8.300;2023-02-28T13:35:50;1.80;78.70
43987;DHT22;29650;47.378;8.300;2023-02-28T13:38:41;1.80;78.70
43987;DHT22;29650;47.378;8.300;2023-02-28T13:41:44;1.80;77.20
43987;DHT22;29650;47.378;8.300;2023-02-28T13:44:15;1.80;77.40
43987;DHT22;29650;47.378;8.300;2023-02-28T13:47:18;2.00;77.60
43987;DHT22;29650;47.378;8.300;2023-02-28T13:49:46;1.90;76.60
43987;DHT22;29650;47.378;8.300;2023-02-28T13:52:17;1.80;77.90
43987;DHT22;29650;47.378;8.300;2023-02-28T13:58:10;2.00;77.20
43987;DHT22;29650;47.378;8.300;2023-02-28T14:01:00;1.90;76.30
43987;DHT22;29650;47.378;8.300;2023-02-28T14:03:45;2.00;76.60
43987;DHT22;29650;47.378;8.300;2023-02-28T14:06:22;1.90;78.50
43987;DHT22;29650;47.378;8.300;2023-02-28T14:08:55;1.70;77.60
43987;DHT22;29650;47.378;8.300;2023-02-28T14:11:28;1.70;78.60
43987;DHT22;29650;47.378;8.300;2023-02-28T14:13:57;1.60;77.70
43987;DHT22;29650;47.378;8.300;2023-02-28T14:16:26;1.60;77.50
43987;DHT22;29650;47.378;8.300;2023-02-28T14:18:58;1.60;77.30
43987;DHT22;29650;47.378;8.300;2023-02-28T14:21:29;1.50;77.80
43987;DHT22;29650;47.378;8.300;2023-02-28T14:24:00;1.70;77.80
43987;DHT22;29650;47.378;8.300;2023-02-28T14:26:43;1.50;78.00
43987;DHT22;29650;47.378;8.300;2023-02-28T14:32:24;1.50;78.40
43987;DHT22;29650;47.378;8.300;2023-02-28T14:34:56;1.60;79.00
43987;DHT22;29650;47.378;8.300;2023-02-28T14:37:28;1.40;79.30
43987;DHT22;29650;47.378;8.300;2023-02-28T14:39:57;1.50;78.90
43987;DHT22;29650;47.378;8.300;2023-02-28T14:42:29;1.40;78.40
43987;DHT22;29650;47.378;8.300;2023-02-28T14:44:57;1.60;79.80
43987;DHT22;29650;47.378;8.300;2023-02-28T14:47:28;1.60;79.60
43987;DHT22;29650;47.378;8.300;2023-02-28T14:49:55;1.60;79.00
43987;DHT22;29650;47.378;8.300;2023-02-28T14:52:24;1.50;78.20
43987;DHT22;29650;47.378;8.300;2023-02-28T14:54:54;1.20;78.30
43987;DHT22;29650;47.378;8.300;2023-02-28T14:57:23;1.80;78.30
43987;DHT22;29650;47.378;8.300;2023-02-28T14:59:59;1.60;77.50
43987;DHT22;29650;47.378;8.300;2023-02-28T15:02:33;1.50;78.50
43987;DHT22;29650;47.378;8.300;2023-02-28T15:05:10;1.70;78.40
43987;DHT22;29650;47.378;8.300;2023-02-28T15:07:43;1.80;77.80
43987;DHT22;29650;47.378;8.300;2023-02-28T15:10:16;1.80;77.50
43987;DHT22;29650;47.378;8.300;2023-02-28T15:12:49;1.90;80.30
43987;DHT22;29650;47.378;8.300;2023-02-28T15:15:18;1.70;78.20
43987;DHT22;29650;47.378;8.300;2023-02-28T15:17:52;1.80;78.70
43987;DHT22;29650;47.378;8.300;2023-02-28T15:20:21;1.70;78.80
43987;DHT22;29650;47.378;8.300;2023-02-28T15:22:51;1.60;78.90
43987;DHT22;29650;47.378;8.300;2023-02-28T15:25:20;1.60;79.10
43987;DHT22;29650;47.378;8.300;2023-02-28T15:27:48;1.60;79.50
43987;DHT22;29650;47.378;8.300;2023-02-28T15:30:18;1.60;78.10
43987;DHT22;29650;47.378;8.300;2023-02-28T15:32:48;1.50;78.80
43987;DHT22;29650;47.378;8.300;2023-02-28T15:35:30;1.60;79.40
43987;DHT22;29650;47.378;8.300;2023-02-28T15:38:01;1.60;79.20
43987;DHT22;29650;47.378;8.300;2023-02-28T15:40:30;1.50;79.00
43987;DHT22;29650;47.378;8.300;2023-02-28T15:42:57;1.60;79.60
43987;DHT22;29650;47.378;8.300;2023-02-28T15:45:32;1.50;78.80
43987;DHT22;29650;47.378;8.300;2023-02-28T15:48:02;1.50;79.00
43987;DHT22;29650;47.378;8.300;2023-02-28T15:50:29;1.40;79.60
43987;DHT22;29650;47.378;8.300;2023-02-28T15:52:56;1.50;80.00
43987;DHT22;29650;47.378;8.300;2023-02-28T15:55:26;1.70;79.20
43987;DHT22;29650;47.378;8.300;2023-02-28T15:57:55;1.60;79.00
43987;DHT22;29650;47.378;8.300;2023-02-28T16:00:26;1.70;79.60
43987;DHT22;29650;47.378;8.300;2023-02-28T16:02:53;1.50;80.00
43987;DHT22;29650;47.378;8.300;2023-02-28T16:05:24;1.50;80.80
43987;DHT22;29650;47.378;8.300;2023-02-28T16:07:56;3.10;82.40
43987;DHT22;29650;47.378;8.300;2023-02-28T16:10:25;1.50;81.00
43987;DHT22;29650;47.378;8.300;2023-02-28T16:12:53;1.40;80.80
43987;DHT22;29650;47.378;8.300;2023-02-28T16:15:22;1.40;81.10
43987;DHT22;29650;47.378;8.300;2023-02-28T16:17:50;1.40;81.20
43987;DHT22;29650;47.378;8.300;2023-02-28T16:20:19;1.40;80.20
43987;DHT22;29650;47.378;8.300;2023-02-28T16:22:48;1.30;80.70
43987;DHT22;29650;47.378;8.300;2023-02-28T16:25:16;1.40;81.10
43987;DHT22;29650;47.378;8.300;2023-02-28T16:27:44;1.40;81.20
43987;DHT22;29650;47.378;8.300;2023-02-28T16:30:17;1.60;80.10